createdAt,value
2022-12-15T00:00:25.629Z,100479.44
2022-12-15T00:03:11.751Z,100476.84
2022-12-15T00:05:58.736Z,100459.88
2022-12-15T00:08:44.537Z,100463.88
2022-12-15T00:11:30.470Z,100464.72
2022-12-15T00:14:16.217Z,100469.78
2022-12-15T00:17:02.299Z,100475.06
2022-12-15T00:19:48.239Z,100474.97
2022-12-15T00:22:35.092Z,100473.19
2022-12-15T00:25:21.035Z,100482.16
2022-12-15T00:28:06.733Z,100479.47
2022-12-15T00:30:55.065Z,100482.09
2022-12-15T00:33:43.394Z,100485.34
2022-12-15T00:36:29.221Z,100484.50
2022-12-15T00:39:03.490Z,100486.31
2022-12-15T00:41:32.191Z,100508.81
2022-12-15T00:44:00.466Z,100496.59
2022-12-15T00:46:46.120Z,100490.63
2022-12-15T00:49:28.504Z,100493.25
2022-12-15T00:52:14.454Z,100497.91
2022-12-15T00:55:01.517Z,100490.78
2022-12-15T00:57:47.534Z,100490.84
2022-12-15T01:00:34.032Z,100496.13
2022-12-15T01:03:19.831Z,100500.25
2022-12-15T01:06:05.452Z,100494.19
2022-12-15T01:08:51.661Z,100501.47
2022-12-15T01:11:38.652Z,100511.00
2022-12-15T01:14:24.515Z,100517.31
2022-12-15T01:17:10.474Z,100508.34
2022-12-15T01:19:56.373Z,100499.16
2022-12-15T01:22:24.939Z,100496.22
2022-12-15T01:24:53.191Z,100504.28
2022-12-15T01:27:22.826Z,100515.69
2022-12-15T01:29:51.091Z,100511.50
2022-12-15T01:32:19.386Z,100516.91
2022-12-15T01:34:47.664Z,100520.41
2022-12-15T01:37:16.144Z,100525.53
2022-12-15T01:40:16.348Z,100524.09
2022-12-15T01:42:46.176Z,100517.09
2022-12-15T01:45:53.828Z,100514.13
2022-12-15T01:48:29.311Z,100535.00
2022-12-15T01:51:14.763Z,100516.94
2022-12-15T01:53:50.127Z,100525.56
2022-12-15T01:56:19.483Z,100524.72
2022-12-15T01:58:53.809Z,100536.84
2022-12-15T02:01:22.297Z,100535.41
2022-12-15T02:03:50.742Z,100545.06
2022-12-15T02:06:22.512Z,100539.09
2022-12-15T02:08:53.811Z,100545.00
2022-12-15T02:11:43.754Z,100545.69
2022-12-15T02:14:19.616Z,100563.34
2022-12-15T02:17:18.995Z,100560.81
2022-12-15T02:20:27.503Z,100568.47
2022-12-15T02:23:58.285Z,100547.19
2022-12-15T02:27:04.930Z,100565.28
2022-12-15T02:30:29.744Z,100562.25
2022-12-15T02:33:08.388Z,100561.47
2022-12-15T02:35:49.249Z,100559.00
2022-12-15T02:38:29.479Z,100558.59
2022-12-15T02:41:00.536Z,100553.44
2022-12-15T02:43:30.723Z,100550.28
2022-12-15T02:46:11.296Z,100552.19
2022-12-15T02:48:50.746Z,100547.78
2022-12-15T02:51:37.061Z,100552.09
2022-12-15T02:54:28.545Z,100547.19
2022-12-15T02:57:06.231Z,100561.41
2022-12-15T02:59:43.248Z,100563.16
2022-12-15T03:02:15.333Z,100564.81
2022-12-15T03:04:45.528Z,100565.53
2022-12-15T03:07:15.672Z,100573.50
2022-12-15T03:09:43.915Z,100568.47
2022-12-15T03:12:12.139Z,100571.88
2022-12-15T03:14:40.415Z,100568.47
2022-12-15T03:17:08.784Z,100570.38
2022-12-15T03:19:38.449Z,100565.25
2022-12-15T03:22:06.781Z,100564.34
2022-12-15T03:24:35.301Z,100570.47
2022-12-15T03:27:03.644Z,100567.03
2022-12-15T03:29:31.991Z,100565.44
2022-12-15T03:32:00.537Z,100574.16
2022-12-15T03:34:28.841Z,100566.41
2022-12-15T03:36:59.215Z,100579.72
2022-12-15T03:39:27.605Z,100566.44
2022-12-15T03:41:55.912Z,100580.06
2022-12-15T03:44:24.246Z,100577.94
2022-12-15T03:46:52.520Z,100576.81
2022-12-15T03:49:20.776Z,100567.91
2022-12-15T03:51:49.022Z,100559.44
2022-12-15T03:54:18.631Z,100592.63
2022-12-15T03:56:46.910Z,100568.72
2022-12-15T03:59:15.359Z,100571.44
2022-12-15T04:01:49.055Z,100577.66
2022-12-15T04:04:17.518Z,100571.66
2022-12-15T04:06:46.145Z,100557.47
2022-12-15T04:09:14.408Z,100558.34
2022-12-15T04:11:44.331Z,100565.59
2022-12-15T04:14:12.926Z,100563.78
2022-12-15T04:16:41.150Z,100566.38
2022-12-15T04:19:38.264Z,100563.19
2022-12-15T04:22:06.525Z,100568.53
2022-12-15T04:24:52.537Z,100567.88
2022-12-15T04:27:39.710Z,100563.63
2022-12-15T04:30:26.919Z,100566.47
2022-12-15T04:33:13.229Z,100571.88
2022-12-15T04:35:58.888Z,100574.59
2022-12-15T04:38:50.510Z,100574.63
2022-12-15T04:41:40.150Z,100585.19
2022-12-15T04:44:29.207Z,100587.91
2022-12-15T04:47:15.104Z,100573.06
2022-12-15T04:50:00.738Z,100574.94
2022-12-15T04:52:47.018Z,100579.03
2022-12-15T04:55:32.884Z,100572.78
2022-12-15T04:58:24.365Z,100578.13
2022-12-15T05:01:12.016Z,100551.56
2022-12-15T05:03:58.293Z,100576.97
2022-12-15T05:06:44.189Z,100576.31
2022-12-15T05:09:30.133Z,100585.66
2022-12-15T05:12:16.115Z,100589.50
2022-12-15T05:15:02.032Z,100587.03
2022-12-15T05:17:49.710Z,100587.72
2022-12-15T05:20:35.610Z,100598.19
2022-12-15T05:23:21.410Z,100598.16
2022-12-15T05:26:07.100Z,100598.16
2022-12-15T05:28:52.907Z,100595.56
2022-12-15T05:31:38.717Z,100602.56
2022-12-15T05:34:08.314Z,100603.25
2022-12-15T05:36:36.510Z,100592.03
2022-12-15T05:39:05.418Z,100596.09
2022-12-15T05:41:33.876Z,100594.28
2022-12-15T05:44:02.155Z,100596.94
2022-12-15T05:46:30.527Z,100606.75
2022-12-15T05:48:59.127Z,100600.75
2022-12-15T05:51:28.717Z,100591.84
2022-12-15T05:53:56.995Z,100615.53
2022-12-15T05:56:27.159Z,100615.47
2022-12-15T05:58:56.943Z,100632.13
2022-12-15T06:01:26.903Z,100632.97
2022-12-15T06:03:55.574Z,100626.00
2022-12-15T06:06:23.890Z,100621.78
2022-12-15T06:08:53.675Z,100626.72
2022-12-15T06:11:22.697Z,100627.22
2022-12-15T06:13:51.248Z,100630.47
2022-12-15T06:16:21.391Z,100631.50
2022-12-15T06:18:55.115Z,100602.66
2022-12-15T06:21:26.653Z,100636.31
2022-12-15T06:23:57.910Z,100635.63
2022-12-15T06:26:30.014Z,100639.03
2022-12-15T06:29:02.584Z,100641.47
2022-12-15T06:31:32.133Z,100643.97
2022-12-15T06:34:02.466Z,100636.72
2022-12-15T06:36:31.668Z,100643.84
2022-12-15T06:39:02.503Z,100521.88
2022-12-15T06:41:31.632Z,100635.53
2022-12-15T06:44:01.088Z,100644.22
2022-12-15T06:46:32.183Z,100609.16
2022-12-15T06:49:00.876Z,100648.75
2022-12-15T06:51:29.898Z,100622.47
2022-12-15T06:53:58.164Z,100642.81
2022-12-15T06:56:33.895Z,100645.50
2022-12-15T06:59:04.423Z,100648.19
2022-12-15T07:01:33.771Z,100648.22
2022-12-15T07:04:04.298Z,100644.03
2022-12-15T07:06:36.704Z,100645.69
2022-12-15T07:09:08.341Z,100646.63
2022-12-15T07:11:38.103Z,100646.66
2022-12-15T07:14:06.424Z,100637.00
2022-12-15T07:16:35.185Z,100648.41
2022-12-15T07:19:03.567Z,100650.94
2022-12-15T07:21:31.883Z,100651.00
2022-12-15T07:24:01.285Z,100644.16
2022-12-15T07:26:30.432Z,100651.06
2022-12-15T07:29:00.097Z,100647.28
2022-12-15T07:31:28.580Z,100636.53
2022-12-15T07:33:58.439Z,100647.91
2022-12-15T07:36:27.490Z,100650.44
2022-12-15T07:39:01.285Z,100648.72
2022-12-15T07:41:30.239Z,100656.66
2022-12-15T07:44:00.126Z,100648.69
2022-12-15T07:46:29.340Z,100661.75
2022-12-15T07:48:57.680Z,100675.84
2022-12-15T07:51:25.999Z,100661.78
2022-12-15T07:53:54.442Z,100673.44
2022-12-15T07:56:22.705Z,100677.13
2022-12-15T07:58:51.990Z,100672.97
2022-12-15T08:01:21.833Z,100671.53
2022-12-15T08:03:50.635Z,100666.53
2022-12-15T08:06:19.013Z,100670.63
2022-12-15T08:08:50.996Z,100666.28
2022-12-15T08:11:22.177Z,100680.88
2022-12-15T08:14:10.607Z,100673.56
2022-12-15T08:16:41.200Z,100606.75
2022-12-15T08:19:13.523Z,100691.78
2022-12-15T08:21:43.126Z,100697.59
2022-12-15T08:24:12.060Z,100682.34
2022-12-15T08:26:41.451Z,100700.22
2022-12-15T08:32:03.575Z,100698.28
2022-12-15T08:34:32.141Z,100693.25
2022-12-15T08:37:00.441Z,100688.91
2022-12-15T08:39:28.751Z,100697.69
2022-12-15T08:41:57.428Z,100691.63
2022-12-15T08:44:25.709Z,100693.34
2022-12-15T08:46:53.994Z,100711.56
2022-12-15T08:49:23.884Z,100709.94
2022-12-15T08:51:52.451Z,100716.84
2022-12-15T08:54:21.729Z,100718.09
2022-12-15T08:56:50.170Z,100723.88
2022-12-15T08:59:19.648Z,100719.88
2022-12-15T09:01:48.413Z,100730.69
2022-12-15T09:04:17.072Z,100731.06
2022-12-15T09:06:50.762Z,100731.38
2022-12-15T09:09:20.094Z,100732.50
2022-12-15T09:11:48.726Z,100731.75
2022-12-15T09:14:17.619Z,100740.59
2022-12-15T09:16:46.132Z,100744.19
2022-12-15T09:19:19.184Z,100741.59
2022-12-15T09:21:49.449Z,100737.22
2022-12-15T09:24:26.135Z,100732.81
2022-12-15T09:27:00.835Z,100746.00
2022-12-15T09:29:29.100Z,100742.47
2022-12-15T09:31:57.483Z,100745.94
2022-12-15T09:34:25.774Z,100741.47
2022-12-15T09:36:55.736Z,100755.44
2022-12-15T09:39:24.585Z,100744.84
2022-12-15T09:41:56.963Z,100738.59
2022-12-15T09:44:28.202Z,100728.84
2022-12-15T09:47:06.940Z,100752.50
2022-12-15T09:49:51.228Z,100755.91
2022-12-15T09:52:25.076Z,100754.91
2022-12-15T09:54:53.647Z,100763.59
2022-12-15T09:57:34.506Z,100750.25
2022-12-15T10:00:11.660Z,100770.84
2022-12-15T10:03:23.615Z,100769.34
2022-12-15T10:06:20.893Z,100772.75
2022-12-15T10:08:57.617Z,100774.44
2022-12-15T10:11:44.579Z,100774.38
2022-12-15T10:14:29.295Z,100790.28
2022-12-15T10:17:08.203Z,100787.66
2022-12-15T10:19:43.633Z,100775.44
2022-12-15T10:22:15.178Z,100777.44
2022-12-15T10:27:58.279Z,100784.63
2022-12-15T10:30:26.703Z,100785.56
2022-12-15T10:33:03.126Z,100788.22
2022-12-15T10:35:34.825Z,100786.44
2022-12-15T10:38:08.836Z,100789.97
2022-12-15T10:40:50.440Z,100790.84
2022-12-15T10:43:34.125Z,100779.41
2022-12-15T10:46:08.642Z,100771.50
2022-12-15T10:48:37.499Z,100766.25
2022-12-15T10:51:26.644Z,100771.50
2022-12-15T10:54:06.403Z,100773.25
2022-12-15T10:56:40.095Z,100781.16
2022-12-15T10:59:26.805Z,100789.06
2022-12-15T11:01:55.313Z,100787.28
2022-12-15T11:04:32.562Z,100745.91
2022-12-15T11:07:02.807Z,100770.53
2022-12-15T11:09:36.158Z,100773.13
2022-12-15T11:12:36.960Z,100774.03
2022-12-15T11:15:38.947Z,100772.31
2022-12-15T11:18:17.455Z,100775.81
2022-12-15T11:20:53.650Z,100750.34
2022-12-15T11:23:31.837Z,100780.22
2022-12-15T11:26:07.256Z,100774.91
2022-12-15T11:28:46.915Z,100765.22
2022-12-15T11:31:26.534Z,100769.63
2022-12-15T11:33:55.558Z,100763.44
2022-12-15T11:36:55.389Z,100754.59
2022-12-15T11:39:42.556Z,100758.09
2022-12-15T11:42:20.911Z,100758.06
2022-12-15T11:45:00.467Z,100757.97
2022-12-15T11:47:44.765Z,100764.03
2022-12-15T11:50:29.049Z,100762.16
2022-12-15T11:53:39.509Z,100772.56
2022-12-15T11:56:19.204Z,100771.53
2022-12-15T11:59:11.121Z,100755.59
2022-12-15T12:02:13.124Z,100774.75
2022-12-15T12:04:54.906Z,100794.06
2022-12-15T12:07:41.784Z,100765.78
2022-12-15T12:10:28.549Z,100766.53
2022-12-15T12:13:10.741Z,100754.97
2022-12-15T12:15:49.170Z,100769.00
2022-12-15T12:18:22.833Z,100765.41
2022-12-15T12:20:58.031Z,100764.38
2022-12-15T12:23:34.903Z,100751.94
2022-12-15T12:26:11.558Z,100754.63
2022-12-15T12:28:48.737Z,100754.47
2022-12-15T12:31:39.382Z,100744.91
2022-12-15T12:34:19.139Z,100739.47
2022-12-15T12:36:50.594Z,100731.56
2022-12-15T12:39:22.413Z,100735.94
2022-12-15T12:42:00.157Z,100734.13
2022-12-15T12:44:34.438Z,100735.97
2022-12-15T12:47:13.182Z,100724.44
2022-12-15T12:49:46.543Z,100726.06
2022-12-15T12:52:26.268Z,100721.59
2022-12-15T12:54:59.565Z,100713.59
2022-12-15T12:57:39.775Z,100704.84
2022-12-15T13:00:25.863Z,100706.50
2022-12-15T13:03:20.806Z,100712.56
2022-12-15T13:05:54.447Z,100712.50
2022-12-15T13:08:52.561Z,100713.25
2022-12-15T13:11:58.783Z,100710.75
2022-12-15T13:14:51.689Z,100715.31
2022-12-15T13:17:30.881Z,100647.03
2022-12-15T13:20:28.770Z,100713.75
2022-12-15T13:23:37.889Z,100716.47
2022-12-15T13:26:15.411Z,100717.41
2022-12-15T13:28:50.503Z,100706.84
2022-12-15T13:31:41.839Z,100693.66
2022-12-15T13:34:24.057Z,100702.66
2022-12-15T13:37:03.608Z,100696.50
2022-12-15T13:39:58.896Z,100696.38
2022-12-15T13:45:48.854Z,100692.78
2022-12-15T13:48:30.742Z,100691.00
2022-12-15T13:51:07.414Z,100686.56
2022-12-15T13:53:43.731Z,100678.72
2022-12-15T13:56:29.713Z,100684.88
2022-12-15T13:59:07.048Z,100684.78
2022-12-15T14:01:35.456Z,100676.81
2022-12-15T14:04:15.530Z,100693.41
2022-12-15T14:06:50.866Z,100688.88
2022-12-15T14:09:27.049Z,100694.13
2022-12-15T14:11:57.216Z,100691.41
2022-12-15T14:14:29.184Z,100690.38
2022-12-15T14:17:01.147Z,100691.25
2022-12-15T14:19:40.040Z,100681.47
2022-12-15T14:25:19.870Z,100676.94
2022-12-15T14:27:50.757Z,100571.09
2022-12-15T14:30:28.272Z,100677.00
2022-12-15T14:33:02.962Z,100678.00
2022-12-15T14:35:36.607Z,100674.28
2022-12-15T14:38:09.456Z,100679.59
2022-12-15T14:40:40.849Z,100672.44
2022-12-15T14:43:22.305Z,100677.00
2022-12-15T14:45:56.053Z,100679.75
2022-12-15T14:48:41.033Z,100680.84
2022-12-15T14:51:13.199Z,100679.28
2022-12-15T14:53:44.694Z,100674.06
2022-12-15T14:56:30.525Z,100675.03
2022-12-15T14:59:04.685Z,100667.22
2022-12-15T15:01:40.167Z,100669.94
2022-12-15T15:03:05.904Z,100681.44
2022-12-15T15:03:07.531Z,100691.00
2022-12-15T15:03:12.252Z,100781.03
2022-12-15T15:04:26.441Z,100671.19
2022-12-15T15:06:57.064Z,100673.59
2022-12-15T15:09:27.770Z,100622.22
2022-12-15T15:11:57.275Z,100667.97
2022-12-15T15:14:30.917Z,100642.69
2022-12-15T15:17:07.392Z,100668.22
2022-12-15T15:19:40.016Z,100665.66
2022-12-15T15:22:27.086Z,100664.00
2022-12-15T15:24:55.454Z,100661.38
2022-12-15T15:27:35.519Z,100650.88
2022-12-15T15:30:23.860Z,100645.69
2022-12-15T15:32:58.412Z,100654.47
2022-12-15T15:35:32.883Z,100641.31
2022-12-15T15:38:06.361Z,100644.91
2022-12-15T15:40:34.689Z,100556.22
2022-12-15T15:43:10.769Z,100633.50
2022-12-15T15:45:42.305Z,100637.00
2022-12-15T15:48:15.854Z,100639.63
2022-12-15T15:50:45.472Z,100644.03
2022-12-15T15:53:20.524Z,100642.25
2022-12-15T15:55:50.846Z,100642.25
2022-12-15T15:58:19.515Z,100643.16
2022-12-15T16:00:49.309Z,100643.13
2022-12-15T16:03:18.016Z,100636.13
2022-12-15T16:05:47.055Z,100645.78
2022-12-15T16:08:18.504Z,100643.13
2022-12-15T16:10:49.386Z,100652.81
2022-12-15T16:13:24.062Z,100644.88
2022-12-15T16:15:56.033Z,100643.09
2022-12-15T16:18:24.391Z,100651.91
2022-12-15T16:20:53.924Z,100648.41
2022-12-15T16:23:25.984Z,100652.84
2022-12-15T16:25:56.645Z,100658.13
2022-12-15T16:28:26.216Z,100663.31
2022-12-15T16:30:56.293Z,100643.06
2022-12-15T16:33:24.693Z,100663.19
2022-12-15T16:35:53.620Z,100657.81
2022-12-15T16:38:26.308Z,100655.09
2022-12-15T16:40:55.244Z,100655.03
2022-12-15T16:43:29.009Z,100650.59
2022-12-15T16:46:02.905Z,100654.19
2022-12-15T16:48:31.695Z,100654.91
2022-12-15T16:51:00.679Z,100647.78
2022-12-15T16:53:32.621Z,100641.59
2022-12-15T16:56:03.334Z,100640.75
2022-12-15T16:58:32.784Z,100647.78
2022-12-15T17:01:03.889Z,100646.94
2022-12-15T17:03:32.519Z,100646.94
2022-12-15T17:06:06.239Z,100649.63
2022-12-15T17:08:40.380Z,100649.69
2022-12-15T17:11:14.972Z,100646.19
2022-12-15T17:13:47.910Z,100645.34
2022-12-15T17:16:18.368Z,100647.16
2022-12-15T17:18:47.080Z,100647.97
2022-12-15T17:21:19.191Z,100657.50
2022-12-15T17:23:52.255Z,100637.28
2022-12-15T17:26:29.300Z,100668.81
2022-12-15T17:29:01.676Z,100638.13
2022-12-15T17:31:35.617Z,100660.13
2022-12-15T17:34:24.259Z,100664.50
2022-12-15T17:36:53.092Z,100655.78
2022-12-15T17:39:23.162Z,100663.69
2022-12-15T17:42:00.890Z,100674.97
2022-12-15T17:44:34.303Z,100679.22
2022-12-15T17:47:06.500Z,100674.72
2022-12-15T17:49:37.638Z,100677.94
2022-12-15T17:52:18.900Z,100678.66
2022-12-15T17:54:47.121Z,100681.47
2022-12-15T17:57:15.394Z,100680.56
2022-12-15T17:59:43.917Z,100672.66
2022-12-15T18:02:15.628Z,100685.91
2022-12-15T18:04:44.557Z,100682.38
2022-12-15T18:07:18.528Z,100676.38
2022-12-15T18:09:47.657Z,100672.06
2022-12-15T18:12:20.617Z,100670.38
2022-12-15T18:14:49.484Z,100668.81
2022-12-15T18:17:19.164Z,100672.34
2022-12-15T18:19:47.757Z,100676.81
2022-12-15T18:22:21.035Z,100677.59
2022-12-15T18:24:50.233Z,100678.22
2022-12-15T18:27:23.893Z,100678.84
2022-12-15T18:29:52.784Z,100678.91
2022-12-15T18:32:23.913Z,100682.50
2022-12-15T18:34:53.547Z,100686.88
2022-12-15T18:37:24.845Z,100679.94
2022-12-15T18:39:56.158Z,100683.47
2022-12-15T18:42:27.006Z,100681.72
2022-12-15T18:44:56.641Z,100691.22
2022-12-15T18:47:27.790Z,100689.63
2022-12-15T18:49:56.207Z,100691.44
2022-12-15T18:52:31.493Z,100697.59
2022-12-15T18:55:03.009Z,100695.81
2022-12-15T18:57:36.474Z,100689.66
2022-12-15T19:00:19.067Z,100697.59
2022-12-15T19:02:49.703Z,100700.25
2022-12-15T19:05:32.628Z,100701.13
2022-12-15T19:08:05.119Z,100710.66
2022-12-15T19:10:35.825Z,100707.03
2022-12-15T19:13:04.109Z,100710.56
2022-12-15T19:15:32.393Z,100717.56
2022-12-15T19:18:19.700Z,100716.66
2022-12-15T19:21:05.334Z,100713.13
2022-12-15T19:23:34.251Z,100728.88
2022-12-15T19:26:03.087Z,100720.06
2022-12-15T19:28:31.432Z,100720.97
2022-12-15T19:30:59.859Z,100733.19
2022-12-15T19:33:29.785Z,100727.94
2022-12-15T19:35:58.416Z,100731.53
2022-12-15T19:38:29.996Z,100734.16
2022-12-15T19:41:00.657Z,100725.34
2022-12-15T19:43:29.010Z,100736.06
2022-12-15T19:45:58.190Z,100737.94
2022-12-15T19:48:26.611Z,100738.88
2022-12-15T19:50:56.269Z,100749.38
2022-12-15T19:53:27.540Z,100738.00
2022-12-15T19:55:59.916Z,100751.97
2022-12-15T19:58:30.883Z,100748.38
2022-12-15T20:01:02.357Z,100748.38
2022-12-15T20:03:31.686Z,100743.13
2022-12-15T20:06:03.455Z,100743.97
2022-12-15T20:08:37.498Z,100719.34
2022-12-15T20:11:06.611Z,100736.97
2022-12-15T20:13:35.673Z,100749.91
2022-12-15T20:16:04.875Z,100753.50
2022-12-15T20:18:33.520Z,100746.56
2022-12-15T20:21:03.701Z,100746.53
2022-12-15T20:23:32.888Z,100754.41
2022-12-15T20:26:02.252Z,100747.41
2022-12-15T20:28:31.448Z,100724.53
2022-12-15T20:31:00.300Z,100755.38
2022-12-15T20:33:28.753Z,100748.38
2022-12-15T20:35:57.523Z,100762.41
2022-12-15T20:38:31.793Z,100734.28
2022-12-15T20:41:01.660Z,100647.72
2022-12-15T20:43:33.872Z,100759.78
2022-12-15T20:46:07.320Z,100772.91
2022-12-15T20:48:37.580Z,100765.03
2022-12-15T20:51:09.878Z,100761.53
2022-12-15T20:53:39.985Z,100771.06
2022-12-15T20:56:09.201Z,100747.41
2022-12-15T20:58:40.481Z,100777.34
2022-12-15T21:01:21.207Z,100770.31
2022-12-15T21:03:51.984Z,100757.94
2022-12-15T21:06:20.549Z,100777.38
2022-12-15T21:08:50.497Z,100771.25
2022-12-15T21:11:22.745Z,100771.28
2022-12-15T21:13:53.870Z,100655.03
2022-12-15T21:16:24.837Z,100791.47
2022-12-15T21:21:46.479Z,100794.13
2022-12-15T21:24:20.345Z,100795.81
2022-12-15T21:26:48.619Z,100794.84
2022-12-15T21:29:20.010Z,100787.03
2022-12-15T21:31:49.130Z,100790.69
2022-12-15T21:34:17.588Z,100795.00
2022-12-15T21:36:48.986Z,100792.34
2022-12-15T21:39:25.017Z,100787.16
2022-12-15T21:41:54.998Z,100789.72
2022-12-15T21:44:23.689Z,100785.28
2022-12-15T21:46:52.421Z,100778.25
2022-12-15T21:49:22.127Z,100780.88
2022-12-15T21:51:55.037Z,100786.97
2022-12-15T21:54:30.866Z,100790.41
2022-12-15T21:57:00.348Z,100797.34
2022-12-15T21:59:32.225Z,100775.31
2022-12-15T22:02:02.101Z,100784.97
2022-12-15T22:04:33.837Z,100784.94
2022-12-15T22:07:02.694Z,100784.06
2022-12-15T22:09:32.345Z,100801.69
2022-12-15T22:12:01.312Z,100799.06
2022-12-15T22:14:31.826Z,100779.69
2022-12-15T22:17:02.753Z,100808.13
2022-12-15T22:19:31.138Z,100804.66
2022-12-15T22:21:59.487Z,100814.28
2022-12-15T22:24:27.867Z,100808.94
2022-12-15T22:26:57.764Z,100819.53
2022-12-15T22:29:27.185Z,100829.28
2022-12-15T22:31:55.795Z,100835.44
2022-12-15T22:34:27.028Z,100832.81
2022-12-15T22:36:55.327Z,100823.19
2022-12-15T22:39:24.874Z,100832.00
2022-12-15T22:41:53.684Z,100825.78
2022-12-15T22:44:26.987Z,100834.53
2022-12-15T22:46:58.217Z,100832.69
2022-12-15T22:49:31.802Z,100825.75
2022-12-15T22:52:00.088Z,100835.44
2022-12-15T22:54:30.552Z,100841.47
2022-12-15T22:57:03.933Z,100800.13
2022-12-15T22:59:37.285Z,100841.47
2022-12-15T23:02:06.310Z,100844.94
2022-12-15T23:04:35.112Z,100840.56
2022-12-15T23:07:05.416Z,100843.19
2022-12-15T23:09:33.833Z,100837.88
2022-12-15T23:12:01.242Z,100837.88
2022-12-15T23:14:43.559Z,100835.22
2022-12-15T23:17:14.291Z,100831.72
2022-12-15T23:19:45.003Z,100830.91
2022-12-15T23:22:13.294Z,100834.34
2022-12-15T23:24:41.693Z,100842.88
2022-12-15T23:27:12.415Z,100832.53
2022-12-15T23:29:40.922Z,100842.16
2022-12-15T23:32:09.246Z,100836.06
2022-12-15T23:34:38.894Z,100839.47
2022-12-15T23:37:07.153Z,100836.91
2022-12-15T23:39:35.467Z,100843.03
2022-12-15T23:42:05.530Z,100836.75
2022-12-15T23:44:33.918Z,100843.94
2022-12-15T23:47:02.320Z,100845.63
2022-12-15T23:49:30.997Z,100851.69
2022-12-15T23:52:00.578Z,100851.75
2022-12-15T23:54:29.070Z,100852.59
2022-12-15T23:56:57.433Z,100843.72
2022-12-15T23:59:25.651Z,100852.44
